FLX9911 SBGO-SBGR
Flight info
| Callsign | FLX9911 |
|---|---|
| Flight time | 1h 13m |
| Altitude | 35000 |
| Route | ESBOD DCT ILPAV DCT ROBAG/N0476F340 UZ38 VUNOX |
| Aircraft | B738/M-SDE2E3FGHIRWXY/LB1 |
Departure
| Time | 2026-04-24 23:27 |
|---|---|
| Airport | Santa Genoveva International Airport (SBGO) |
Arrival
| Time | 2026-04-25 00:41 |
|---|---|
| Airport | São Paulo/Guarulhos–Governor André Franco Montoro International Airport (SBGR) |
| Time | Latitude | Longitude | Altitude | Speed | Heading |
|---|---|---|---|---|---|
| 2026-04-24 23:04 | -16.63040 | -49.21484 | 2504 ft | 0 kts | 49° |
| 2026-04-24 23:19 | -16.63046 | -49.21491 | 2467 ft | 2 kts | 48° |
| 2026-04-24 23:19 | -16.63057 | -49.21504 | 2463 ft | 2 kts | 46° |
| 2026-04-24 23:20 | -16.63069 | -49.21516 | 2462 ft | 2 kts | 39° |
| 2026-04-24 23:20 | -16.63083 | -49.21525 | 2461 ft | 2 kts | 10° |
| 2026-04-24 23:20 | -16.63098 | -49.21522 | 2464 ft | 1 kts | 316° |
| 2026-04-24 23:20 | -16.63100 | -49.21519 | 2464 ft | 0 kts | 314° |
| 2026-04-24 23:22 | -16.63097 | -49.21522 | 2464 ft | 2 kts | 314° |
| 2026-04-24 23:22 | -16.63085 | -49.21535 | 2461 ft | 4 kts | 314° |
| 2026-04-24 23:22 | -16.63060 | -49.21558 | 2461 ft | 6 kts | 320° |
| 2026-04-24 23:22 | -16.63015 | -49.21589 | 2463 ft | 9 kts | 329° |
| 2026-04-24 23:23 | -16.62948 | -49.21624 | 2465 ft | 12 kts | 330° |
| 2026-04-24 23:23 | -16.62927 | -49.21713 | 2458 ft | 16 kts | 259° |
| 2026-04-24 23:23 | -16.62958 | -49.21848 | 2456 ft | 22 kts | 257° |
| 2026-04-24 23:23 | -16.62991 | -49.22024 | 2447 ft | 27 kts | 269° |
| 2026-04-24 23:24 | -16.62952 | -49.22205 | 2450 ft | 24 kts | 300° |
| 2026-04-24 23:24 | -16.62870 | -49.22351 | 2460 ft | 23 kts | 300° |
| 2026-04-24 23:24 | -16.62802 | -49.22477 | 2458 ft | 19 kts | 300° |
| 2026-04-24 23:24 | -16.62730 | -49.22600 | 2457 ft | 21 kts | 301° |
| 2026-04-24 23:25 | -16.62658 | -49.22732 | 2458 ft | 21 kts | 299° |
| 2026-04-24 23:25 | -16.62581 | -49.22864 | 2462 ft | 18 kts | 295° |
| 2026-04-24 23:25 | -16.62615 | -49.22938 | 2457 ft | 7 kts | 214° |
| 2026-04-24 23:25 | -16.62666 | -49.22973 | 2457 ft | 10 kts | 209° |
| 2026-04-24 23:26 | -16.62712 | -49.22964 | 2458 ft | 6 kts | 131° |
| 2026-04-24 23:26 | -16.62773 | -49.22860 | 2457 ft | 46 kts | 120° |
| 2026-04-24 23:26 | -16.63067 | -49.22337 | 2457 ft | 120 kts | 120° |
| 2026-04-24 23:26 | -16.63601 | -49.21392 | 2481 ft | 178 kts | 121° |
| 2026-04-24 23:27 | -16.64285 | -49.20193 | 3001 ft | 201 kts | 121° |
| 2026-04-24 23:27 | -16.64974 | -49.18974 | 4132 ft | 183 kts | 120° |
| 2026-04-24 23:27 | -16.65620 | -49.17810 | 4943 ft | 195 kts | 119° |
| 2026-04-24 23:27 | -16.66346 | -49.16510 | 5137 ft | 218 kts | 121° |
| 2026-04-24 23:28 | -16.67492 | -49.15390 | 5308 ft | 242 kts | 155° |
| 2026-04-24 23:28 | -16.69211 | -49.15203 | 5562 ft | 266 kts | 191° |
| 2026-04-24 23:28 | -16.70850 | -49.16195 | 5951 ft | 286 kts | 227° |
| 2026-04-24 23:28 | -16.71861 | -49.17985 | 6731 ft | 288 kts | 241° |
| 2026-04-24 23:29 | -16.73043 | -49.19666 | 7461 ft | 287 kts | 220° |
| 2026-04-24 23:29 | -16.74791 | -49.20581 | 7874 ft | 282 kts | 188° |
| 2026-04-24 23:29 | -16.76736 | -49.20917 | 8559 ft | 286 kts | 191° |
| 2026-04-24 23:29 | -16.78679 | -49.21443 | 9323 ft | 289 kts | 196° |
| 2026-04-24 23:30 | -16.80596 | -49.22096 | 10114 ft | 291 kts | 198° |
| 2026-04-24 23:30 | -16.82515 | -49.22808 | 10790 ft | 294 kts | 199° |
| 2026-04-24 23:30 | -16.84450 | -49.23546 | 11434 ft | 299 kts | 199° |
| 2026-04-24 23:30 | -16.86440 | -49.24203 | 12067 ft | 302 kts | 186° |
| 2026-04-24 23:31 | -16.88542 | -49.24025 | 12456 ft | 313 kts | 162° |
| 2026-04-24 23:31 | -16.90638 | -49.23255 | 12613 ft | 333 kts | 159° |
| 2026-04-24 23:31 | -16.92876 | -49.22389 | 12758 ft | 352 kts | 159° |
| 2026-04-24 23:31 | -16.95236 | -49.21477 | 12878 ft | 370 kts | 159° |
| 2026-04-24 23:32 | -16.97702 | -49.20530 | 13007 ft | 386 kts | 159° |
| 2026-04-24 23:32 | -17.00257 | -49.19557 | 13333 ft | 394 kts | 159° |
| 2026-04-24 23:32 | -17.02842 | -49.18577 | 13808 ft | 397 kts | 159° |
| 2026-04-24 23:32 | -17.05453 | -49.17591 | 14265 ft | 399 kts | 159° |
| 2026-04-24 23:33 | -17.08075 | -49.16602 | 14682 ft | 402 kts | 159° |
| 2026-04-24 23:33 | -17.09817 | -49.15945 | 14958 ft | 404 kts | 159° |
| 2026-04-24 23:33 | -17.13374 | -49.14604 | 15505 ft | 407 kts | 159° |
| 2026-04-24 23:33 | -17.16053 | -49.13593 | 15905 ft | 410 kts | 159° |
| 2026-04-24 23:34 | -17.18736 | -49.12581 | 16292 ft | 413 kts | 159° |
| 2026-04-24 23:34 | -17.21452 | -49.11555 | 16681 ft | 416 kts | 159° |
| 2026-04-24 23:34 | -17.24184 | -49.10523 | 17066 ft | 418 kts | 159° |
| 2026-04-24 23:34 | -17.26898 | -49.09498 | 17427 ft | 421 kts | 159° |
| 2026-04-24 23:35 | -17.29694 | -49.08445 | 17800 ft | 424 kts | 160° |
| 2026-04-24 23:35 | -17.32507 | -49.07614 | 18143 ft | 427 kts | 166° |
| 2026-04-24 23:35 | -17.35435 | -49.07007 | 18472 ft | 430 kts | 169° |
| 2026-04-24 23:35 | -17.38394 | -49.06477 | 18775 ft | 432 kts | 169° |
| 2026-04-24 23:36 | -17.41369 | -49.05947 | 19070 ft | 434 kts | 169° |
| 2026-04-24 23:36 | -17.44355 | -49.05390 | 19349 ft | 436 kts | 169° |
| 2026-04-24 23:36 | -17.47341 | -49.04806 | 19653 ft | 438 kts | 168° |
| 2026-04-24 23:36 | -17.50347 | -49.04199 | 19939 ft | 440 kts | 168° |
| 2026-04-24 23:37 | -17.53365 | -49.03580 | 20216 ft | 442 kts | 168° |
| 2026-04-24 23:37 | -17.56386 | -49.02958 | 20502 ft | 444 kts | 168° |
| 2026-04-24 23:37 | -17.62490 | -49.01701 | 21028 ft | 448 kts | 168° |
| 2026-04-24 23:38 | -17.65566 | -49.01069 | 21292 ft | 450 kts | 168° |
| 2026-04-24 23:38 | -17.68648 | -49.00433 | 21545 ft | 452 kts | 167° |
| 2026-04-24 23:38 | -17.71652 | -48.99493 | 21766 ft | 454 kts | 156° |
| 2026-04-24 23:38 | -17.74456 | -48.97951 | 22020 ft | 454 kts | 146° |
| 2026-04-24 23:39 | -17.76955 | -48.95930 | 22257 ft | 455 kts | 136° |
| 2026-04-24 23:39 | -17.79225 | -48.93603 | 22489 ft | 456 kts | 135° |
| 2026-04-24 23:39 | -17.81492 | -48.91265 | 22694 ft | 459 kts | 135° |
| 2026-04-24 23:39 | -17.83745 | -48.88954 | 22900 ft | 461 kts | 135° |
| 2026-04-24 23:40 | -17.85276 | -48.87393 | 23042 ft | 462 kts | 135° |
| 2026-04-24 23:40 | -17.87615 | -48.85019 | 23257 ft | 463 kts | 135° |
| 2026-04-24 23:40 | -17.89913 | -48.82696 | 23454 ft | 465 kts | 136° |
| 2026-04-24 23:40 | -17.92254 | -48.80336 | 23631 ft | 467 kts | 136° |
| 2026-04-24 23:41 | -17.94596 | -48.77977 | 23815 ft | 468 kts | 136° |
| 2026-04-24 23:41 | -17.96949 | -48.75606 | 24000 ft | 468 kts | 136° |
| 2026-04-24 23:41 | -17.99305 | -48.73233 | 24193 ft | 469 kts | 136° |
| 2026-04-24 23:41 | -18.01664 | -48.70854 | 24372 ft | 470 kts | 136° |
| 2026-04-24 23:42 | -18.04021 | -48.68476 | 24538 ft | 471 kts | 136° |
| 2026-04-24 23:42 | -18.06390 | -48.66084 | 24704 ft | 472 kts | 136° |
| 2026-04-24 23:42 | -18.08762 | -48.63689 | 24892 ft | 473 kts | 136° |
| 2026-04-24 23:42 | -18.11129 | -48.61298 | 25059 ft | 473 kts | 136° |
| 2026-04-24 23:43 | -18.13509 | -48.58892 | 25213 ft | 475 kts | 136° |
| 2026-04-24 23:43 | -18.15887 | -48.56488 | 25374 ft | 476 kts | 136° |
| 2026-04-24 23:43 | -18.18284 | -48.54063 | 25539 ft | 476 kts | 136° |
| 2026-04-24 23:43 | -18.20675 | -48.51643 | 25709 ft | 477 kts | 136° |
| 2026-04-24 23:44 | -18.23068 | -48.49220 | 25852 ft | 478 kts | 136° |
| 2026-04-24 23:44 | -18.25468 | -48.46790 | 26004 ft | 479 kts | 136° |
| 2026-04-24 23:44 | -18.27874 | -48.44352 | 26158 ft | 480 kts | 136° |
| 2026-04-24 23:44 | -18.30278 | -48.41915 | 26310 ft | 481 kts | 136° |
| 2026-04-24 23:45 | -18.32656 | -48.39504 | 26451 ft | 482 kts | 136° |
| 2026-04-24 23:45 | -18.35072 | -48.37053 | 26587 ft | 483 kts | 136° |
| 2026-04-24 23:45 | -18.37493 | -48.34596 | 26724 ft | 483 kts | 136° |
| 2026-04-24 23:45 | -18.39918 | -48.32135 | 26864 ft | 484 kts | 136° |
| 2026-04-24 23:46 | -18.42350 | -48.29664 | 26986 ft | 485 kts | 136° |
| 2026-04-24 23:46 | -18.44783 | -48.27192 | 27105 ft | 487 kts | 136° |
| 2026-04-24 23:46 | -18.47219 | -48.24715 | 27235 ft | 487 kts | 136° |
| 2026-04-24 23:46 | -18.49660 | -48.22233 | 27362 ft | 488 kts | 136° |
| 2026-04-24 23:47 | -18.52076 | -48.19775 | 27483 ft | 489 kts | 136° |
| 2026-04-24 23:47 | -18.54554 | -48.17253 | 27610 ft | 490 kts | 136° |
| 2026-04-24 23:47 | -18.56971 | -48.14792 | 27812 ft | 489 kts | 136° |
| 2026-04-24 23:47 | -18.59415 | -48.12303 | 28047 ft | 488 kts | 136° |
| 2026-04-24 23:48 | -18.61850 | -48.09821 | 28273 ft | 487 kts | 136° |
| 2026-04-24 23:48 | -18.64285 | -48.07338 | 28482 ft | 486 kts | 136° |
| 2026-04-24 23:48 | -18.66719 | -48.04856 | 28667 ft | 486 kts | 136° |
| 2026-04-24 23:48 | -18.69150 | -48.02375 | 28885 ft | 485 kts | 136° |
| 2026-04-24 23:49 | -18.71571 | -47.99904 | 29120 ft | 484 kts | 136° |
| 2026-04-24 23:49 | -18.73997 | -47.97427 | 29348 ft | 484 kts | 136° |
| 2026-04-24 23:49 | -18.76410 | -47.94961 | 29557 ft | 483 kts | 136° |
| 2026-04-24 23:49 | -18.78827 | -47.92491 | 29772 ft | 483 kts | 137° |
| 2026-04-24 23:50 | -18.81237 | -47.90026 | 30007 ft | 482 kts | 137° |
| 2026-04-24 23:50 | -18.83642 | -47.87566 | 30242 ft | 481 kts | 137° |
| 2026-04-24 23:50 | -18.86045 | -47.85107 | 30428 ft | 480 kts | 137° |
| 2026-04-24 23:50 | -18.88442 | -47.82653 | 30624 ft | 480 kts | 137° |
| 2026-04-24 23:51 | -18.90844 | -47.80193 | 30810 ft | 480 kts | 137° |
| 2026-04-24 23:51 | -18.93242 | -47.77736 | 31025 ft | 480 kts | 137° |
| 2026-04-24 23:51 | -18.95634 | -47.75284 | 31243 ft | 479 kts | 137° |
| 2026-04-24 23:51 | -18.97991 | -47.72866 | 31446 ft | 479 kts | 137° |
| 2026-04-24 23:52 | -19.00413 | -47.70381 | 31651 ft | 479 kts | 137° |
| 2026-04-24 23:52 | -19.02769 | -47.67963 | 31867 ft | 478 kts | 137° |
| 2026-04-24 23:52 | -19.05153 | -47.65516 | 32091 ft | 477 kts | 137° |
| 2026-04-24 23:52 | -19.07532 | -47.63071 | 32304 ft | 477 kts | 137° |
| 2026-04-24 23:53 | -19.09914 | -47.60623 | 32515 ft | 477 kts | 137° |
| 2026-04-24 23:53 | -19.12295 | -47.58175 | 32748 ft | 476 kts | 137° |
| 2026-04-24 23:53 | -19.14670 | -47.55732 | 32976 ft | 476 kts | 137° |
| 2026-04-24 23:53 | -19.17032 | -47.53302 | 33187 ft | 476 kts | 137° |
| 2026-04-24 23:54 | -19.19404 | -47.50860 | 33408 ft | 475 kts | 137° |
| 2026-04-24 23:54 | -19.21775 | -47.48418 | 33650 ft | 475 kts | 137° |
| 2026-04-24 23:54 | -19.24144 | -47.45978 | 33884 ft | 474 kts | 137° |
| 2026-04-24 23:54 | -19.26501 | -47.43548 | 34108 ft | 474 kts | 137° |
| 2026-04-24 23:55 | -19.28866 | -47.41110 | 34302 ft | 474 kts | 137° |
| 2026-04-24 23:55 | -19.31219 | -47.38682 | 34511 ft | 473 kts | 137° |
| 2026-04-24 23:55 | -19.33575 | -47.36250 | 34724 ft | 472 kts | 137° |
| 2026-04-24 23:55 | -19.35928 | -47.33821 | 34916 ft | 472 kts | 137° |
| 2026-04-24 23:56 | -19.38278 | -47.31393 | 35078 ft | 472 kts | 137° |
| 2026-04-24 23:56 | -19.40638 | -47.28955 | 35079 ft | 474 kts | 137° |
| 2026-04-24 23:56 | -19.45349 | -47.24084 | 35115 ft | 472 kts | 137° |
| 2026-04-24 23:57 | -19.50040 | -47.19228 | 35143 ft | 470 kts | 137° |
| 2026-04-24 23:57 | -19.54681 | -47.14421 | 35159 ft | 468 kts | 137° |
| 2026-04-24 23:58 | -19.59339 | -47.09592 | 35172 ft | 467 kts | 137° |
| 2026-04-24 23:58 | -19.63991 | -47.04765 | 35179 ft | 467 kts | 137° |
| 2026-04-24 23:59 | -19.68614 | -46.99965 | 35175 ft | 468 kts | 137° |
| 2026-04-24 23:59 | -19.73300 | -46.95095 | 35161 ft | 469 kts | 137° |
| 2026-04-25 00:00 | -19.77942 | -46.90266 | 35147 ft | 470 kts | 137° |
| 2026-04-25 00:00 | -19.82651 | -46.85363 | 35137 ft | 472 kts | 137° |
| 2026-04-25 00:01 | -19.87338 | -46.80478 | 35126 ft | 473 kts | 137° |
| 2026-04-25 00:01 | -19.92012 | -46.75604 | 35117 ft | 474 kts | 137° |
| 2026-04-25 00:02 | -19.96712 | -46.70697 | 35121 ft | 474 kts | 137° |
| 2026-04-25 00:02 | -20.01424 | -46.65774 | 35111 ft | 474 kts | 137° |
| 2026-04-25 00:03 | -20.06125 | -46.60857 | 35116 ft | 474 kts | 137° |
| 2026-04-25 00:03 | -20.10824 | -46.55939 | 35120 ft | 474 kts | 137° |
| 2026-04-25 00:04 | -20.15528 | -46.51011 | 35115 ft | 474 kts | 137° |
| 2026-04-25 00:04 | -20.20236 | -46.46075 | 35113 ft | 474 kts | 137° |
| 2026-04-25 00:05 | -20.24928 | -46.41151 | 35113 ft | 474 kts | 137° |
| 2026-04-25 00:05 | -20.29624 | -46.36218 | 35106 ft | 473 kts | 137° |
| 2026-04-25 00:06 | -20.34292 | -46.31309 | 35104 ft | 474 kts | 137° |
| 2026-04-25 00:06 | -20.38979 | -46.26376 | 35103 ft | 473 kts | 137° |
| 2026-04-25 00:07 | -20.43665 | -46.21441 | 35099 ft | 473 kts | 137° |
| 2026-04-25 00:07 | -20.48345 | -46.16507 | 35101 ft | 473 kts | 137° |
| 2026-04-25 00:08 | -20.53032 | -46.11561 | 35098 ft | 474 kts | 137° |
| 2026-04-25 00:08 | -20.57718 | -46.06611 | 35096 ft | 474 kts | 137° |
| 2026-04-25 00:09 | -20.62403 | -46.01657 | 35101 ft | 474 kts | 137° |
| 2026-04-25 00:09 | -20.67082 | -45.96706 | 35095 ft | 474 kts | 137° |
| 2026-04-25 00:10 | -20.71993 | -45.92035 | 35091 ft | 471 kts | 149° |
| 2026-04-25 00:10 | -20.77796 | -45.89035 | 35112 ft | 465 kts | 163° |
| 2026-04-25 00:11 | -20.82898 | -45.87044 | 35101 ft | 466 kts | 162° |
| 2026-04-25 00:11 | -20.87047 | -45.85980 | 35101 ft | 461 kts | 177° |
| 2026-04-25 00:11 | -20.90243 | -45.85902 | 35096 ft | 458 kts | 186° |
| 2026-04-25 00:12 | -20.96459 | -45.87228 | 35103 ft | 455 kts | 195° |
| 2026-04-25 00:12 | -21.02616 | -45.88846 | 35099 ft | 456 kts | 195° |
| 2026-04-25 00:13 | -21.08807 | -45.90421 | 35096 ft | 457 kts | 195° |
| 2026-04-25 00:13 | -21.14998 | -45.91970 | 35096 ft | 457 kts | 195° |
| 2026-04-25 00:14 | -21.21163 | -45.93511 | 35093 ft | 457 kts | 195° |
| 2026-04-25 00:14 | -21.27357 | -45.95063 | 35098 ft | 457 kts | 195° |
| 2026-04-25 00:15 | -21.33546 | -45.96615 | 35103 ft | 457 kts | 195° |
| 2026-04-25 00:15 | -21.39741 | -45.98171 | 35098 ft | 456 kts | 195° |
| 2026-04-25 00:16 | -21.45899 | -45.99719 | 35100 ft | 456 kts | 195° |
| 2026-04-25 00:16 | -21.52072 | -46.01269 | 35098 ft | 455 kts | 195° |
| 2026-04-25 00:17 | -21.58248 | -46.02811 | 35111 ft | 455 kts | 195° |
| 2026-04-25 00:17 | -21.64408 | -46.04350 | 35106 ft | 454 kts | 195° |
| 2026-04-25 00:18 | -21.70557 | -46.05889 | 35111 ft | 453 kts | 195° |
| 2026-04-25 00:18 | -21.76689 | -46.07425 | 35121 ft | 452 kts | 196° |
| 2026-04-25 00:19 | -21.79763 | -46.08197 | 34896 ft | 456 kts | 195° |
| 2026-04-25 00:19 | -21.82878 | -46.08979 | 34308 ft | 459 kts | 196° |
| 2026-04-25 00:19 | -21.85983 | -46.09758 | 33599 ft | 458 kts | 196° |
| 2026-04-25 00:19 | -21.89091 | -46.10539 | 32863 ft | 458 kts | 196° |
| 2026-04-25 00:20 | -21.92193 | -46.11318 | 32133 ft | 459 kts | 196° |
| 2026-04-25 00:20 | -21.95317 | -46.12103 | 31373 ft | 461 kts | 196° |
| 2026-04-25 00:20 | -21.98444 | -46.12890 | 30583 ft | 464 kts | 196° |
| 2026-04-25 00:20 | -22.01524 | -46.13665 | 29715 ft | 467 kts | 196° |
| 2026-04-25 00:21 | -22.04732 | -46.14472 | 28793 ft | 469 kts | 196° |
| 2026-04-25 00:21 | -22.07876 | -46.15264 | 27903 ft | 470 kts | 195° |
| 2026-04-25 00:21 | -22.11073 | -46.16069 | 26980 ft | 472 kts | 195° |
| 2026-04-25 00:21 | -22.14288 | -46.16880 | 26029 ft | 476 kts | 195° |
| 2026-04-25 00:22 | -22.17501 | -46.17690 | 25352 ft | 472 kts | 195° |
| 2026-04-25 00:22 | -22.20699 | -46.18495 | 24654 ft | 469 kts | 195° |
| 2026-04-25 00:22 | -22.23871 | -46.19296 | 23957 ft | 467 kts | 195° |
| 2026-04-25 00:22 | -22.27036 | -46.20095 | 23180 ft | 465 kts | 195° |
| 2026-04-25 00:23 | -22.30169 | -46.20886 | 22456 ft | 461 kts | 195° |
| 2026-04-25 00:23 | -22.33288 | -46.21628 | 21827 ft | 456 kts | 192° |
| 2026-04-25 00:23 | -22.36409 | -46.22165 | 21299 ft | 450 kts | 189° |
| 2026-04-25 00:23 | -22.39497 | -46.22600 | 20764 ft | 447 kts | 189° |
| 2026-04-25 00:24 | -22.42596 | -46.23027 | 20238 ft | 451 kts | 189° |
| 2026-04-25 00:24 | -22.45712 | -46.23477 | 19688 ft | 452 kts | 189° |
| 2026-04-25 00:24 | -22.48820 | -46.23949 | 19136 ft | 448 kts | 190° |
| 2026-04-25 00:24 | -22.51876 | -46.24427 | 18610 ft | 443 kts | 190° |
| 2026-04-25 00:25 | -22.54881 | -46.24900 | 18061 ft | 440 kts | 190° |
| 2026-04-25 00:25 | -22.57883 | -46.25368 | 17695 ft | 431 kts | 190° |
| 2026-04-25 00:25 | -22.60842 | -46.25828 | 17192 ft | 425 kts | 190° |
| 2026-04-25 00:25 | -22.63752 | -46.26279 | 16963 ft | 426 kts | 189° |
| 2026-04-25 00:26 | -22.66705 | -46.26739 | 16584 ft | 430 kts | 189° |
| 2026-04-25 00:26 | -22.69652 | -46.27198 | 16221 ft | 427 kts | 189° |
| 2026-04-25 00:26 | -22.72582 | -46.27653 | 15873 ft | 423 kts | 189° |
| 2026-04-25 00:26 | -22.75488 | -46.28105 | 15512 ft | 420 kts | 189° |
| 2026-04-25 00:27 | -22.78344 | -46.28653 | 15155 ft | 416 kts | 198° |
| 2026-04-25 00:27 | -22.80920 | -46.30025 | 14822 ft | 410 kts | 214° |
| 2026-04-25 00:27 | -22.82490 | -46.31157 | 14587 ft | 409 kts | 213° |
| 2026-04-25 00:27 | -22.85754 | -46.33272 | 14123 ft | 408 kts | 211° |
| 2026-04-25 00:28 | -22.88224 | -46.34783 | 13743 ft | 407 kts | 210° |
| 2026-04-25 00:28 | -22.89856 | -46.35773 | 13503 ft | 405 kts | 210° |
| 2026-04-25 00:28 | -22.92312 | -46.37265 | 13143 ft | 403 kts | 210° |
| 2026-04-25 00:28 | -22.94752 | -46.38758 | 12788 ft | 398 kts | 210° |
| 2026-04-25 00:29 | -22.97133 | -46.40225 | 12432 ft | 388 kts | 211° |
| 2026-04-25 00:29 | -23.00187 | -46.42115 | 12016 ft | 375 kts | 211° |
| 2026-04-25 00:29 | -23.01703 | -46.43056 | 11806 ft | 369 kts | 211° |
| 2026-04-25 00:29 | -23.03900 | -46.44421 | 11499 ft | 360 kts | 211° |
| 2026-04-25 00:30 | -23.06055 | -46.45763 | 11205 ft | 353 kts | 211° |
| 2026-04-25 00:30 | -23.08168 | -46.47077 | 10905 ft | 346 kts | 211° |
| 2026-04-25 00:30 | -23.10212 | -46.48349 | 10626 ft | 340 kts | 211° |
| 2026-04-25 00:30 | -23.11594 | -46.49210 | 10429 ft | 335 kts | 211° |
| 2026-04-25 00:31 | -23.12294 | -46.49646 | 10337 ft | 334 kts | 211° |
| 2026-04-25 00:31 | -23.14279 | -46.50883 | 10060 ft | 322 kts | 211° |
| 2026-04-25 00:31 | -23.16173 | -46.52062 | 9760 ft | 309 kts | 211° |
| 2026-04-25 00:31 | -23.18002 | -46.53200 | 9513 ft | 296 kts | 211° |
| 2026-04-25 00:32 | -23.19754 | -46.54292 | 9251 ft | 286 kts | 211° |
| 2026-04-25 00:32 | -23.21444 | -46.55365 | 8976 ft | 277 kts | 213° |
| 2026-04-25 00:32 | -23.23052 | -46.56497 | 8700 ft | 274 kts | 214° |
| 2026-04-25 00:32 | -23.24652 | -46.57650 | 8338 ft | 277 kts | 214° |
| 2026-04-25 00:33 | -23.26253 | -46.58797 | 8060 ft | 276 kts | 214° |
| 2026-04-25 00:33 | -23.27849 | -46.59939 | 7840 ft | 272 kts | 214° |
| 2026-04-25 00:33 | -23.29427 | -46.61062 | 7625 ft | 269 kts | 214° |
| 2026-04-25 00:33 | -23.30989 | -46.62172 | 7432 ft | 267 kts | 214° |
| 2026-04-25 00:34 | -23.32528 | -46.63266 | 7223 ft | 268 kts | 214° |
| 2026-04-25 00:34 | -23.34081 | -46.64369 | 7033 ft | 263 kts | 214° |
| 2026-04-25 00:34 | -23.35583 | -46.65437 | 6858 ft | 253 kts | 214° |
| 2026-04-25 00:34 | -23.37034 | -46.66468 | 6675 ft | 243 kts | 214° |
| 2026-04-25 00:35 | -23.38416 | -46.67450 | 6493 ft | 231 kts | 214° |
| 2026-04-25 00:35 | -23.39723 | -46.68380 | 6311 ft | 222 kts | 214° |
| 2026-04-25 00:35 | -23.41022 | -46.69262 | 6135 ft | 219 kts | 206° |
| 2026-04-25 00:35 | -23.42493 | -46.69481 | 5934 ft | 213 kts | 167° |
| 2026-04-25 00:36 | -23.43726 | -46.68724 | 5772 ft | 200 kts | 135° |
| 2026-04-25 00:36 | -23.44574 | -46.67589 | 5581 ft | 187 kts | 124° |
| 2026-04-25 00:36 | -23.45274 | -46.66464 | 5418 ft | 170 kts | 123° |
| 2026-04-25 00:36 | -23.45929 | -46.65399 | 5292 ft | 171 kts | 123° |
| 2026-04-25 00:37 | -23.46592 | -46.64328 | 5085 ft | 167 kts | 123° |
| 2026-04-25 00:37 | -23.47034 | -46.63191 | 4883 ft | 164 kts | 92° |
| 2026-04-25 00:37 | -23.46825 | -46.61994 | 4788 ft | 165 kts | 75° |
| 2026-04-25 00:37 | -23.46603 | -46.60767 | 4584 ft | 164 kts | 81° |
| 2026-04-25 00:38 | -23.46400 | -46.59559 | 4422 ft | 162 kts | 77° |
| 2026-04-25 00:38 | -23.46119 | -46.58371 | 4312 ft | 163 kts | 75° |
| 2026-04-25 00:38 | -23.45809 | -46.57189 | 4117 ft | 160 kts | 74° |
| 2026-04-25 00:38 | -23.45498 | -46.56027 | 3910 ft | 160 kts | 74° |
| 2026-04-25 00:39 | -23.45184 | -46.54865 | 3735 ft | 159 kts | 74° |
| 2026-04-25 00:39 | -23.44876 | -46.53719 | 3540 ft | 157 kts | 74° |
| 2026-04-25 00:39 | -23.44569 | -46.52577 | 3333 ft | 157 kts | 75° |
| 2026-04-25 00:39 | -23.44264 | -46.51445 | 3111 ft | 154 kts | 74° |
| 2026-04-25 00:40 | -23.43963 | -46.50324 | 2906 ft | 154 kts | 74° |
| 2026-04-25 00:40 | -23.43661 | -46.49201 | 2682 ft | 154 kts | 74° |
| 2026-04-25 00:40 | -23.43361 | -46.48090 | 2480 ft | 151 kts | 73° |
| 2026-04-25 00:40 | -23.43100 | -46.47120 | 2473 ft | 107 kts | 73° |
| 2026-04-25 00:41 | -23.42977 | -46.46744 | 2470 ft | 15 kts | 20° |
| 2026-04-25 00:41 | -23.42922 | -46.46766 | 2470 ft | 9 kts | 329° |
| 2026-04-25 00:41 | -23.42904 | -46.46776 | 2469 ft | 0 kts | 335° |
| 2026-04-25 00:41 | -23.42902 | -46.46777 | 2469 ft | 0 kts | 336° |
| 2026-04-25 00:42 | -23.42898 | -46.46779 | 2469 ft | 1 kts | 336° |
| 2026-04-25 00:42 | -23.42892 | -46.46780 | 2469 ft | 1 kts | 349° |
| 2026-04-25 00:42 | -23.42881 | -46.46783 | 2469 ft | 2 kts | 348° |
| 2026-04-25 00:42 | -23.42859 | -46.46790 | 2468 ft | 5 kts | 345° |
| 2026-04-25 00:43 | -23.42821 | -46.46802 | 2471 ft | 7 kts | 342° |
| 2026-04-25 00:43 | -23.42780 | -46.46836 | 2472 ft | 8 kts | 292° |
| 2026-04-25 00:43 | -23.42783 | -46.46901 | 2471 ft | 9 kts | 256° |
| 2026-04-25 00:43 | -23.42804 | -46.46974 | 2471 ft | 11 kts | 252° |
| 2026-04-25 00:44 | -23.42827 | -46.47054 | 2469 ft | 12 kts | 252° |
| 2026-04-25 00:44 | -23.42853 | -46.47142 | 2471 ft | 13 kts | 256° |
| 2026-04-25 00:44 | -23.42874 | -46.47233 | 2467 ft | 12 kts | 254° |
| 2026-04-25 00:44 | -23.42899 | -46.47322 | 2470 ft | 13 kts | 253° |
| 2026-04-25 00:45 | -23.42926 | -46.47424 | 2470 ft | 15 kts | 254° |
| 2026-04-25 00:45 | -23.42957 | -46.47542 | 2470 ft | 17 kts | 253° |
| 2026-04-25 00:45 | -23.42994 | -46.47677 | 2468 ft | 20 kts | 254° |
| 2026-04-25 00:45 | -23.43033 | -46.47826 | 2467 ft | 21 kts | 253° |
| 2026-04-25 00:46 | -23.43078 | -46.47986 | 2469 ft | 23 kts | 253° |
| 2026-04-25 00:46 | -23.43125 | -46.48156 | 2468 ft | 23 kts | 254° |
| 2026-04-25 00:46 | -23.43148 | -46.48414 | 2468 ft | 14 kts | 333° |
| 2026-04-25 00:47 | -23.43056 | -46.48439 | 2469 ft | 12 kts | 344° |
| 2026-04-25 00:47 | -23.42979 | -46.48453 | 2469 ft | 11 kts | 353° |
| 2026-04-25 00:47 | -23.42898 | -46.48468 | 2467 ft | 13 kts | 330° |
| 2026-04-25 00:47 | -23.42874 | -46.48533 | 2467 ft | 8 kts | 273° |
| 2026-04-25 00:48 | -23.42872 | -46.48556 | 2467 ft | 0 kts | 276° |